Time;durP1;ratioP1;P1;durP2;ratioP2;P2;SDS_P1;SDS_P2;PMS_P1;PMS_P2;Temp;Humidity;BMP_temperature;BMP_pressure;BME280_temperature;BME280_humidity;BME280_pressure;Samples;Min_cycle;Max_cycle;Signal;HPM_P1;HPM_P2
2022/05/02 00:02:00;;;;;;;5.28;3.47;;;;;;;11.59;45.41;101386.46;1729010;82;20915;-74
2022/05/02 00:04:26;;;;;;;6.47;3.60;;;;;;;11.58;45.53;101390.36;1715436;82;20919;-74
2022/05/02 00:06:52;;;;;;;7.70;3.73;;;;;;;11.56;45.58;101390.80;1707890;82;25047;-74
2022/05/02 00:09:19;;;;;;;7.47;3.87;;;;;;;11.54;45.68;101387.37;1733832;82;20879;-74
2022/05/02 00:11:45;;;;;;;5.57;3.43;;;;;;;11.52;45.76;101387.81;1718990;82;20954;-74
2022/05/02 00:14:11;;;;;;;5.83;3.57;;;;;;;11.51;45.85;101386.09;1737101;82;20875;-73
2022/05/02 00:16:39;;;;;;;;;;;;;;;11.50;45.88;101386.53;1734303;82;20927;-74
2022/05/02 00:19:05;;;;;;;11.05;3.40;;;;;;;11.48;46.43;101383.09;1717209;82;20432;-73
2022/05/02 00:21:31;;;;;;;5.33;3.80;;;;;;;11.47;45.96;101384.39;1733500;82;20879;-73
2022/05/02 00:23:57;;;;;;;8.38;3.80;;;;;;;11.46;46.04;101382.24;1712630;82;20922;-74
2022/05/02 00:26:23;;;;;;;6.43;4.00;;;;;;;11.44;46.07;101386.57;1721579;82;21552;-74
2022/05/02 00:28:49;;;;;;;8.50;4.07;;;;;;;11.43;46.12;101390.50;1726865;82;20927;-74
2022/05/02 00:31:15;;;;;;;6.27;3.67;;;;;;;11.42;46.16;101391.37;1719414;82;20958;-74
2022/05/02 00:33:41;;;;;;;10.30;4.23;;;;;;;11.37;46.24;101397.88;1733660;82;20938;-74
2022/05/02 00:36:07;;;;;;;5.77;4.00;;;;;;;11.31;46.31;101390.15;1737246;82;20876;-73
2022/05/02 00:38:33;;;;;;;6.80;3.65;;;;;;;11.24;46.37;101391.91;1737030;82;20907;-73
2022/05/02 00:41:00;;;;;;;6.40;3.63;;;;;;;11.19;46.43;101398.84;1723539;82;20906;-74
2022/05/02 00:43:26;;;;;;;6.08;3.98;;;;;;;11.13;46.50;101390.26;1736742;82;20875;-74
2022/05/02 00:45:52;;;;;;;7.87;4.33;;;;;;;11.10;46.55;101394.16;1737219;81;20938;-74
2022/05/02 00:48:20;;;;;;;6.83;4.08;;;;;;;11.07;46.61;101392.87;1744168;81;20939;-74
2022/05/02 00:50:47;;;;;;;6.65;4.20;;;;;;;11.02;46.65;101392.05;1757545;81;20943;-74
2022/05/02 00:53:19;;;;;;;7.35;4.45;;;;;;;10.94;46.70;101391.65;1749336;81;20963;-73
2022/05/02 00:55:46;;;;;;;7.10;4.12;;;;;;;10.88;46.78;101390.84;1757099;81;20899;-74
2022/05/02 00:58:15;;;;;;;8.78;4.62;;;;;;;10.81;46.79;101385.27;1748733;81;21956;-73
2022/05/02 01:00:42;;;;;;;10.32;4.92;;;;;;;10.74;46.86;101387.03;1727386;81;20927;-73
2022/05/02 01:03:14;;;;;;;6.87;4.17;;;;;;;10.70;46.89;101390.50;1755573;81;20923;-74
2022/05/02 01:08:32;;;;;;;7.37;3.95;;;;;;;10.60;47.01;101400.02;1717248;81;20930;-74
2022/05/02 01:10:59;;;;;;;5.50;3.47;;;;;;;10.53;47.07;101405.20;1750087;81;20903;-75
2022/05/02 01:13:47;;;;;;;4.72;4.10;;;;;;;10.47;47.11;101398.33;1727811;81;20915;-75
2022/05/02 01:16:20;;;;;;;5.75;3.37;;;;;;;10.42;47.19;101394.03;1755886;81;20922;-75
2022/05/02 01:18:51;;;;;;;9.38;4.30;;;;;;;10.38;47.29;101397.52;1696925;83;20962;-75
2022/05/02 01:21:23;;;;;;;6.03;3.55;;;;;;;10.31;47.32;101397.97;1727423;81;20910;-75
2022/05/02 01:23:53;;;;;;;4.05;3.42;;;;;;;10.25;47.35;101396.69;1753418;81;21811;-75
2022/05/02 01:26:20;;;;;;;5.20;3.70;;;;;;;10.20;47.40;101394.11;1757395;81;21006;-74
2022/05/02 01:28:52;;;;;;;4.40;4.00;;;;;;;10.14;47.45;101390.65;1757288;81;20923;-74
2022/05/02 01:31:19;;;;;;;6.40;3.52;;;;;;;10.08;47.56;101396.69;1757226;81;20939;-75
2022/05/02 01:33:46;;;;;;;;;;;;;;;10.04;47.61;101387.64;1760051;81;21364;-75
2022/05/02 01:36:12;;;;;;;5.45;3.50;;;;;;;9.96;48.15;101383.78;1752298;81;20121;-75
2022/05/02 01:38:39;;;;;;;7.30;3.83;;;;;;;9.90;47.70;101380.77;1754467;81;26400;-75
2022/05/02 01:41:06;;;;;;;6.35;4.25;;;;;;;9.86;47.81;101380.38;1757422;81;21811;-75
2022/05/02 01:43:33;;;;;;;7.15;4.05;;;;;;;9.84;47.95;101378.22;1757427;81;20879;-75
2022/05/02 01:46:05;;;;;;;5.83;4.67;;;;;;;9.87;48.01;101371.77;1758840;80;20903;-75
2022/05/02 01:48:32;;;;;;;12.63;4.92;;;;;;;9.89;48.09;101371.30;1732806;81;20922;-75
2022/05/02 01:50:58;;;;;;;7.80;4.80;;;;;;;9.89;48.10;101372.59;1707729;82;20910;-75
2022/05/02 01:53:26;;;;;;;5.97;4.10;;;;;;;9.90;48.18;101373.02;1724467;82;20946;-75
2022/05/02 01:55:52;;;;;;;;;;;;;;;9.85;48.18;101369.61;1734561;82;20875;-75
2022/05/02 01:58:19;;;;;;;9.50;4.35;;;;;;;9.79;48.74;101365.74;1705117;84;20145;-75
2022/05/02 02:00:46;;;;;;;8.98;4.62;;;;;;;9.75;48.35;101364.02;1673619;84;20916;-74
2022/05/02 02:03:12;;;;;;;8.40;3.90;;;;;;;9.73;48.41;101361.01;1691857;84;20952;-75
2022/05/02 02:05:51;;;;;;;9.13;4.03;;;;;;;9.72;48.48;101360.58;1692468;84;20880;-75
2022/05/02 02:08:30;;;;;;;6.22;4.10;;;;;;;9.69;48.54;101364.45;1699525;84;20972;-75
2022/05/02 02:11:06;;;;;;;6.30;3.65;;;;;;;9.67;48.61;101352.83;1677395;85;20920;-75
2022/05/02 02:13:33;;;;;;;6.65;4.22;;;;;;;9.65;48.64;101351.11;1696459;84;20876;-75
2022/05/02 02:16:00;;;;;;;;;;;;;;;9.60;48.69;101358.86;1707791;84;20936;-75
2022/05/02 02:18:29;;;;;;;10.38;4.22;;;;;;;9.55;49.22;101358.86;1695261;84;20106;-75
2022/05/02 02:20:56;;;;;;;7.47;3.80;;;;;;;9.47;48.75;101359.72;1677908;84;20975;-75
2022/05/02 02:23:23;;;;;;;8.78;4.10;;;;;;;9.43;48.82;101362.72;1694870;84;20896;-75
2022/05/02 02:25:51;;;;;;;8.15;4.42;;;;;;;9.39;48.93;101363.58;1701832;84;20940;-75
2022/05/02 02:28:17;;;;;;;6.30;3.80;;;;;;;9.33;48.99;101360.16;1705530;84;21663;-75
2022/05/02 02:30:45;;;;;;;8.00;4.37;;;;;;;9.30;49.12;101355.86;1703858;84;21389;-75
2022/05/02 02:33:20;;;;;;;12.20;7.55;;;;;;;9.30;49.18;101357.15;1705681;84;20987;-75
2022/05/02 02:35:46;;;;;;;8.63;5.70;;;;;;;9.26;49.19;101358.86;1705712;84;21298;-74
2022/05/02 02:38:12;;;;;;;6.25;4.28;;;;;;;9.23;49.24;101354.12;1705079;84;20943;-74
2022/05/02 02:40:40;;;;;;;5.97;3.63;;;;;;;9.18;49.31;101349.39;1697483;84;20912;-75
2022/05/02 02:43:07;;;;;;;7.87;3.77;;;;;;;9.13;49.37;101353.25;1685215;84;21432;-75
2022/05/02 02:45:36;;;;;;;5.20;3.55;;;;;;;9.08;49.41;101359.26;1656779;84;20884;-74
2022/05/02 02:48:11;;;;;;;4.50;3.90;;;;;;;9.06;49.49;101355.39;1704233;83;20873;-74
2022/05/02 02:50:37;;;;;;;5.80;3.87;;;;;;;9.03;49.59;101351.51;1696488;84;20975;-75
2022/05/02 02:53:04;;;;;;;6.73;4.43;;;;;;;9.01;49.61;101350.64;1692829;84;21639;-75
2022/05/02 02:55:30;;;;;;;;;;;;;;;8.96;49.66;101349.77;1703935;84;20912;-75
2022/05/02 02:57:56;;;;;;;7.45;3.45;;;;;;;8.94;50.18;101349.77;1701325;83;20161;-75
2022/05/02 03:00:22;;;;;;;9.10;4.57;;;;;;;8.92;49.72;101347.61;1681422;84;20908;-75
2022/05/02 03:02:50;;;;;;;5.42;4.22;;;;;;;8.89;49.74;101349.32;1695573;83;20916;-75
2022/05/02 03:08:00;;;;;;;6.22;4.58;;;;;;;8.82;50.46;101341.17;1706441;84;20106;-74
2022/05/02 03:10:27;;;;;;;12.07;4.43;;;;;;;8.77;49.93;101344.16;1695054;84;20896;-75
2022/05/02 03:12:54;;;;;;;5.75;3.77;;;;;;;8.75;50.01;101335.56;1701514;84;21629;-75
2022/05/02 03:15:21;;;;;;;16.57;9.13;;;;;;;8.76;50.15;101334.27;1701587;84;20936;-75
2022/05/02 03:17:48;;;;;;;8.00;4.95;;;;;;;8.80;50.15;101337.72;1701209;84;20905;-75
2022/05/02 03:20:14;;;;;;;5.12;3.72;;;;;;;8.83;50.30;101335.16;1694607;84;20928;-76
2022/05/02 03:22:40;;;;;;;5.92;4.12;;;;;;;8.86;50.29;101335.13;1694644;84;20892;-75
2022/05/02 03:25:07;;;;;;;3.72;3.40;;;;;;;8.88;50.34;101342.02;1673588;84;20917;-76
2022/05/02 03:27:33;;;;;;;6.45;3.52;;;;;;;8.90;50.34;101331.70;1685976;84;20961;-76
2022/05/02 03:30:00;;;;;;;4.40;3.30;;;;;;;8.86;50.39;101328.25;1693323;84;20934;-76
2022/05/02 03:32:29;;;;;;;6.78;4.92;;;;;;;8.84;50.51;101332.97;1673459;85;21418;-75
2022/05/02 03:34:55;;;;;;;6.30;5.20;;;;;;;8.84;50.69;101336.41;1677157;85;20910;-75
2022/05/02 03:37:22;;;;;;;9.68;5.75;;;;;;;8.84;50.69;101336.41;1699107;84;20954;-75
2022/05/02 03:39:55;;;;;;;8.18;6.30;;;;;;;8.84;50.61;101336.84;1682680;84;21400;-75
2022/05/02 03:42:21;;;;;;;7.83;5.50;;;;;;;8.80;50.66;101336.44;1706518;84;20903;-75
2022/05/02 03:44:47;;;;;;;3.77;3.17;;;;;;;8.78;50.77;101337.72;1706542;84;20905;-75
2022/05/02 03:47:13;;;;;;;7.35;4.00;;;;;;;8.76;50.70;101343.30;1693520;82;21345;-75
2022/05/02 03:49:39;;;;;;;8.40;3.80;;;;;;;8.73;50.81;101342.00;1706251;84;20940;-75
2022/05/02 03:52:06;;;;;;;4.37;3.67;;;;;;;8.76;50.94;101337.28;1677100;84;20892;-75
2022/05/02 03:54:32;;;;;;;;;;;;;;;8.78;50.97;101339.01;1682939;84;21408;-75
2022/05/02 03:56:58;;;;;;;4.83;3.00;;;;;;;8.80;51.63;101342.88;1691241;84;20664;-75
2022/05/02 03:59:28;;;;;;;4.42;3.55;;;;;;;8.79;51.08;101339.88;1696831;84;21442;-74
2022/05/02 04:01:54;;;;;;;5.77;4.20;;;;;;;8.79;51.14;101336.86;1677815;85;20952;-74
2022/05/02 04:04:20;;;;;;;5.97;3.73;;;;;;;8.82;51.20;101333.44;1694390;84;21401;-74
2022/05/02 04:06:48;;;;;;;5.93;3.33;;;;;;;8.82;51.22;101335.58;1705842;84;20881;-75
2022/05/02 04:09:14;;;;;;;4.33;3.08;;;;;;;8.83;51.32;101333.86;1700568;84;21468;-74
2022/05/02 04:11:42;;;;;;;6.28;3.40;;;;;;;8.83;51.38;101334.73;1677473;85;21364;-76
2022/05/02 04:14:08;;;;;;;7.93;3.90;;;;;;;8.89;51.45;101340.30;1677826;85;21427;-75
2022/05/02 04:16:34;;;;;;;4.60;4.10;;;;;;;8.94;51.56;101337.30;1702250;84;21766;-75
2022/05/02 04:19:01;;;;;;;6.08;3.70;;;;;;;8.99;51.61;101333.44;1705811;84;21401;-75
2022/05/02 04:21:27;;;;;;;5.03;3.50;;;;;;;9.01;51.55;101322.70;1706023;84;21526;-75
2022/05/02 04:23:53;;;;;;;5.73;3.97;;;;;;;9.01;51.63;101326.56;1701558;84;21424;-75
2022/05/02 04:26:19;;;;;;;6.67;4.20;;;;;;;9.01;51.63;101326.56;1686615;84;21928;-75
2022/05/02 04:28:45;;;;;;;8.93;6.07;;;;;;;9.02;51.61;101328.29;1677502;84;21380;-75
2022/05/02 04:31:11;;;;;;;8.43;4.50;;;;;;;8.96;51.59;101341.61;1694180;84;21077;-75
2022/05/02 04:33:39;;;;;;;26.60;15.98;;;;;;;8.93;51.76;101341.59;1698335;84;21412;-75
2022/05/02 04:36:06;;;;;;;39.77;20.70;;;;;;;8.98;51.87;101341.61;1677714;84;21448;-75
2022/05/02 04:38:32;;;;;;;;;;;;;;;9.06;51.89;101350.23;1702776;84;22159;-75
2022/05/02 04:41:04;;;;;;;38.20;19.23;;;;;;;9.11;52.21;101343.36;1705772;84;20402;-75
2022/05/02 04:43:30;;;;;;;25.10;14.77;;;;;;;9.15;51.85;101352.83;1697247;84;21388;-75
2022/05/02 04:45:56;;;;;;;10.63;7.57;;;;;;;9.16;51.87;101356.27;1704173;82;21805;-75
2022/05/02 04:48:22;;;;;;;14.13;7.23;;;;;;;9.20;52.07;101361.86;1697525;83;21416;-75
2022/05/02 04:50:48;;;;;;;9.63;5.83;;;;;;;9.20;52.07;101361.86;1706800;84;21712;-75
2022/05/02 04:53:14;;;;;;;6.53;5.50;;;;;;;9.21;51.91;101361.87;1700312;84;21689;-75
2022/05/02 04:55:40;;;;;;;8.97;4.97;;;;;;;9.25;51.97;101368.76;1690593;84;20916;-75
2022/05/02 04:58:07;;;;;;;8.63;5.20;;;;;;;9.32;52.00;101363.61;1698854;84;21432;-75
2022/05/02 05:00:32;;;;;;;12.47;5.03;;;;;;;9.36;52.01;101362.28;1706632;84;20952;-75
2022/05/02 05:02:59;;;;;;;8.15;5.12;;;;;;;9.38;51.98;101361.86;1698616;84;21413;-75
2022/05/02 05:05:25;;;;;;;6.73;5.13;;;;;;;9.39;52.03;101363.58;1669359;82;20900;-75
2022/05/02 05:07:50;;;;;;;8.37;5.80;;;;;;;9.46;52.07;101359.28;1683236;83;20936;-75
2022/05/02 05:10:22;;;;;;;9.40;5.47;;;;;;;9.51;52.10;101358.86;1679529;83;21384;-75
2022/05/02 05:13:08;;;;;;;7.17;5.60;;;;;;;9.59;52.08;101368.76;1681955;83;20979;-75
2022/05/02 05:19:15;;;;;;;7.83;5.45;;;;;;;10.47;52.55;101363.42;1698603;82;21667;-75
2022/05/02 05:22:11;;;;;;;6.55;5.05;;;;;;;10.93;52.37;101361.47;1679569;84;21425;-74
2022/05/02 05:24:54;;;;;;;6.75;5.12;;;;;;;11.08;52.27;101356.63;1692291;83;21043;-75
2022/05/02 05:27:47;;;;;;;8.98;5.70;;;;;;;11.12;52.28;101358.34;1672121;84;21232;-74
2022/05/02 05:30:17;;;;;;;7.65;5.22;;;;;;;11.14;52.27;101358.33;1685653;83;21067;-74
2022/05/02 05:33:21;;;;;;;8.03;5.50;;;;;;;11.23;52.32;101357.84;1691623;83;20941;-75
2022/05/02 05:36:02;;;;;;;9.65;5.20;;;;;;;11.30;52.29;101359.09;1677483;83;20928;-75
2022/05/02 05:38:51;;;;;;;11.53;5.53;;;;;;;11.42;52.35;101356.41;1698674;83;20951;-75
2022/05/02 05:41:39;;;;;;;13.70;5.40;;;;;;;11.68;52.49;101353.58;1666241;84;20956;-74
2022/05/02 05:44:38;;;;;;;9.85;5.05;;;;;;;12.21;52.54;101360.41;1692297;82;20944;-74
2022/05/02 05:47:12;;;;;;;9.63;5.62;;;;;;;12.70;52.45;101355.92;1698416;83;20897;-75
2022/05/02 05:49:56;;;;;;;8.05;5.65;;;;;;;13.15;52.43;101359.59;1707065;82;20919;-74
2022/05/02 05:52:58;;;;;;;11.70;5.37;;;;;;;13.31;52.20;101352.91;1688987;82;21399;-74
2022/05/02 05:55:56;;;;;;;6.42;4.72;;;;;;;13.36;52.25;101353.26;1696160;82;20975;-74
2022/05/02 05:58:45;;;;;;;8.20;4.90;;;;;;;13.73;52.37;101352.19;1696433;83;20959;-74
2022/05/02 06:01:14;;;;;;;5.75;4.97;;;;;;;13.88;52.01;101353.67;1682403;83;20975;-74
2022/05/02 06:04:09;;;;;;;6.92;5.25;;;;;;;13.94;52.00;101354.86;1684682;83;20974;-74
2022/05/02 06:06:36;;;;;;;;;;;;;;;14.07;52.14;101355.02;1672237;83;20990;-75
2022/05/02 06:09:05;;;;;;;9.43;5.50;;;;;;;14.45;51.75;101349.56;1672949;83;20225;-75
2022/05/02 06:11:33;;;;;;;9.40;5.25;;;;;;;14.74;51.91;101354.13;1683677;83;21055;-75
2022/05/02 06:14:02;;;;;;;9.98;5.50;;;;;;;14.92;51.82;101355.48;1679762;82;21046;-75
2022/05/02 06:19:25;;;;;;;13.22;5.03;;;;;;;15.12;51.49;101352.81;1667207;84;20888;-75
2022/05/02 06:21:53;;;;;;;8.25;4.90;;;;;;;15.20;51.36;101353.95;1681968;82;21003;-75
2022/05/02 06:24:27;;;;;;;5.80;5.15;;;;;;;15.26;51.30;101352.50;1672753;84;20919;-75
2022/05/02 06:26:55;;;;;;;8.53;5.25;;;;;;;15.30;51.20;101350.23;1706264;82;21004;-75
2022/05/02 06:29:23;;;;;;;9.68;4.90;;;;;;;15.43;51.15;101354.27;1694406;82;20967;-75
2022/05/02 06:31:54;;;;;;;9.13;4.90;;;;;;;15.51;50.94;101352.77;1682851;82;20919;-75
2022/05/02 06:34:25;;;;;;;6.42;5.05;;;;;;;15.51;50.90;101352.33;1690858;82;21046;-75
2022/05/02 06:37:11;;;;;;;7.05;4.78;;;;;;;15.67;50.83;101351.50;1680854;82;20895;-76
2022/05/02 06:40:19;;;;;;;7.95;5.00;;;;;;;15.87;50.76;101349.24;1679347;82;20979;-75
2022/05/02 06:42:56;;;;;;;7.42;4.55;;;;;;;16.13;50.64;101358.96;1617995;86;21037;-76
2022/05/02 06:45:50;;;;;;;10.35;5.08;;;;;;;16.38;50.51;101358.29;1615854;86;21005;-76
2022/05/02 06:48:36;;;;;;;6.72;4.97;;;;;;;16.63;50.44;101358.45;1621077;86;21043;-76
2022/05/02 06:51:13;;;;;;;4.85;4.35;;;;;;;16.97;50.39;101351.33;1617497;87;21013;-76
2022/05/02 06:54:01;;;;;;;9.78;4.67;;;;;;;17.33;50.24;101358.89;1606332;86;21016;-76
2022/05/02 06:56:48;;;;;;;4.95;3.87;;;;;;;17.64;50.06;101350.45;1607233;88;20924;-76
2022/05/02 06:59:34;;;;;;;4.97;3.65;;;;;;;17.98;49.95;101358.47;1605352;87;20975;-76
2022/05/02 07:02:29;;;;;;;6.12;4.00;;;;;;;18.10;49.73;101363.28;1606500;87;21008;-76
2022/05/02 07:05:05;;;;;;;7.03;3.87;;;;;;;18.32;49.53;101356.34;1629587;86;20977;-76
2022/05/02 07:07:46;;;;;;;5.72;3.95;;;;;;;18.50;49.47;101358.28;1631168;86;20967;-76
2022/05/02 07:10:18;;;;;;;9.38;4.37;;;;;;;18.67;49.09;101356.38;1594839;87;20939;-76
2022/05/02 07:13:29;;;;;;;4.87;3.98;;;;;;;18.81;49.15;101355.83;1615483;84;21021;-75
2022/05/02 07:16:25;;;;;;;4.80;3.47;;;;;;;19.16;49.14;101347.45;1687084;82;20906;-76
2022/05/02 07:19:32;;;;;;;7.42;3.95;;;;;;;19.57;48.74;101348.86;1685101;82;20940;-76
2022/05/02 07:22:07;;;;;;;4.30;3.25;;;;;;;19.71;48.55;101355.70;1682850;82;20967;-76
2022/05/02 07:25:08;;;;;;;5.20;3.80;;;;;;;19.85;48.36;101348.52;1687060;82;20968;-76
2022/05/02 07:28:05;;;;;;;5.65;4.55;;;;;;;19.95;48.07;101348.52;1687492;82;20963;-75
2022/05/02 07:30:36;;;;;;;6.53;4.60;;;;;;;20.11;48.15;101347.40;1686205;82;20913;-75
2022/05/02 07:33:03;;;;;;;5.90;4.55;;;;;;;20.44;48.33;101345.05;1652946;84;21471;-76
2022/05/02 07:35:31;;;;;;;7.35;3.85;;;;;;;20.88;48.02;101336.39;1683385;82;20975;-78
2022/05/02 07:37:59;;;;;;;6.90;4.22;;;;;;;21.25;47.56;101335.52;1690500;82;20956;-76
2022/05/02 07:40:25;;;;;;;11.75;5.42;;;;;;;21.55;46.75;101337.08;1685024;82;21515;-79
2022/05/02 07:42:53;;;;;;;;;;;;;;;21.37;46.39;101331.41;1691187;82;20896;-78
2022/05/02 07:45:29;;;;;;;7.20;4.33;;;;;;;21.10;45.84;101330.97;1692163;82;20113;-78
2022/05/02 07:48:01;;;;;;;5.90;4.17;;;;;;;20.70;46.05;101333.34;1688846;82;20932;-78
2022/05/02 07:50:30;;;;;;;5.95;3.70;;;;;;;20.54;46.03;101332.34;1692112;82;20916;-78
2022/05/02 07:52:58;;;;;;;5.55;4.45;;;;;;;20.39;45.76;101325.55;1692591;82;26572;-78
2022/05/02 07:55:24;;;;;;;4.35;3.92;;;;;;;20.38;45.77;101331.73;1694038;82;21015;-78
2022/05/02 07:57:51;;;;;;;4.92;3.95;;;;;;;20.50;45.51;101330.32;1690177;82;20885;-77
2022/05/02 08:00:19;;;;;;;7.40;4.37;;;;;;;20.51;45.25;101329.86;1688181;82;20970;-77
2022/05/02 08:02:46;;;;;;;4.80;3.17;;;;;;;20.59;44.98;101329.05;1699408;82;20909;-76
2022/05/02 08:05:16;;;;;;;5.20;3.58;;;;;;;20.61;44.97;101336.40;1699676;82;20968;-76
2022/05/02 08:07:44;;;;;;;3.80;3.33;;;;;;;20.70;44.87;101338.60;1691542;82;21023;-76
2022/05/02 08:10:45;;;;;;;3.83;3.45;;;;;;;20.77;44.62;101334.77;1683238;82;21003;-79
2022/05/02 08:13:38;;;;;;;4.42;3.72;;;;;;;20.61;44.16;101336.40;1665843;82;21575;-79
2022/05/02 08:16:18;;;;;;;6.85;3.42;;;;;;;20.25;44.04;101335.83;1676525;83;20965;-78
2022/05/02 08:19:03;;;;;;;4.78;3.55;;;;;;;20.04;44.00;101332.83;1663152;84;21003;-78
2022/05/02 08:21:46;;;;;;;6.20;3.98;;;;;;;20.06;43.85;101332.30;1686630;84;20971;-76
2022/05/02 08:27:48;;;;;;;5.10;3.12;;;;;;;20.10;43.42;101339.13;1690427;82;20880;-77
2022/05/02 08:30:24;;;;;;;6.35;3.42;;;;;;;20.04;43.38;101328.44;1677863;84;20923;-77
2022/05/02 08:33:07;;;;;;;3.37;3.10;;;;;;;20.14;43.27;101332.82;1689283;82;21009;-76
2022/05/02 08:36:06;;;;;;;4.05;2.90;;;;;;;20.24;43.11;101326.70;1687195;82;20980;-77
2022/05/02 08:38:55;;;;;;;4.37;3.37;;;;;;;20.42;43.00;101317.53;1679824;83;21356;-77
2022/05/02 08:42:11;;;;;;;4.55;2.70;;;;;;;20.57;42.78;101325.64;1691929;82;20889;-77
2022/05/02 08:45:00;;;;;;;4.35;2.52;;;;;;;20.62;42.49;101318.39;1686466;82;20884;-76
2022/05/02 08:47:43;;;;;;;5.35;3.02;;;;;;;20.57;42.28;101319.06;1643571;82;20926;-75
2022/05/02 08:50:21;;;;;;;4.05;2.17;;;;;;;20.48;42.01;101312.00;1685197;82;20880;-75
2022/05/02 08:53:07;;;;;;;5.17;2.22;;;;;;;20.40;41.84;101307.55;1684941;82;20885;-78
2022/05/02 08:55:58;;;;;;;2.30;2.10;;;;;;;20.34;41.58;101312.20;1680732;83;20964;-79
2022/05/02 08:59:09;;;;;;;2.92;1.70;;;;;;;20.06;41.26;101306.91;1680662;84;20960;-77
2022/05/02 09:02:00;;;;;;;3.62;1.92;;;;;;;19.94;41.09;101312.69;1674114;82;20955;-78
2022/05/02 09:04:43;;;;;;;2.45;1.70;;;;;;;19.73;40.75;101311.02;1692894;82;21471;-78
2022/05/02 09:08:08;;;;;;;4.12;1.70;;;;;;;19.71;40.61;101308.92;1652274;84;21457;-78
2022/05/02 09:11:31;;;;;;;3.02;2.15;;;;;;;19.60;40.37;101301.50;1664114;84;20968;-78
2022/05/02 09:14:08;;;;;;;4.85;1.98;;;;;;;19.50;39.87;101300.16;1684532;84;21011;-77
2022/05/02 09:17:00;;;;;;;6.30;2.20;;;;;;;19.23;39.91;101294.31;1649454;82;20939;-77
2022/05/02 09:19:52;;;;;;;3.12;2.00;;;;;;;18.99;39.39;101302.70;1694439;84;21763;-77
2022/05/02 09:23:04;;;;;;;3.60;1.85;;;;;;;18.62;39.58;101291.52;1698117;82;21991;-77
2022/05/02 09:26:10;;;;;;;3.90;2.00;;;;;;;18.53;39.36;101293.15;1698393;82;20963;-78
2022/05/02 09:29:16;;;;;;;4.10;2.58;;;;;;;18.35;39.37;101292.53;1696496;82;20945;-78
2022/05/02 09:31:58;;;;;;;6.65;2.58;;;;;;;18.29;39.37;101289.69;1686639;82;21420;-78
2022/05/02 09:34:46;;;;;;;3.62;2.55;;;;;;;18.27;39.20;101293.27;1691067;82;20928;-78
2022/05/02 09:37:23;;;;;;;2.67;2.45;;;;;;;18.13;39.04;101282.03;1683210;82;20908;-78
2022/05/02 09:40:15;;;;;;;4.17;2.45;;;;;;;17.97;38.94;101275.18;1695826;82;20976;-78
2022/05/02 09:42:47;;;;;;;2.30;2.08;;;;;;;17.85;38.89;101271.23;1687726;82;20944;-78
2022/05/02 09:52:16;;;;;;;5.53;2.50;;;;;;;17.68;38.69;101256.59;1703015;82;20917;-77
2022/05/02 09:57:56;;;;;;;4.30;2.52;;;;;;;17.54;38.56;101254.91;1655036;84;20968;-78
2022/05/02 10:01:17;;;;;;;4.08;2.65;;;;;;;17.59;38.68;101252.98;1695243;82;21000;-79
2022/05/02 10:03:03;;;;;;;3.90;2.30;;;;;;;17.58;38.46;101253.89;1679298;82;20964;-79
2022/05/02 10:06:08;;;;;;;6.55;2.90;;;;;;;17.48;38.47;101247.27;1687656;82;21353;-78
2022/05/02 10:08:56;;;;;;;7.58;2.92;;;;;;;17.49;38.46;101251.14;1694832;82;20996;-78
2022/05/02 10:12:00;;;;;;;4.67;2.95;;;;;;;17.49;38.51;101233.29;1668497;82;21400;-78
2022/05/02 10:15:14;;;;;;;3.20;2.83;;;;;;;17.54;38.46;101232.67;1687987;82;21043;-78
2022/05/02 10:18:05;;;;;;;4.55;2.62;;;;;;;17.54;38.54;101223.08;1696125;82;21369;-78
2022/05/02 10:20:59;;;;;;;4.47;2.80;;;;;;;17.62;38.34;101234.57;1691890;82;20920;-78
2022/05/02 10:23:48;;;;;;;3.42;2.90;;;;;;;17.61;38.40;101226.33;1693546;82;20968;-78
2022/05/02 10:26:31;;;;;;;4.17;3.02;;;;;;;17.63;38.22;101223.66;1691533;82;20900;-78
2022/05/02 10:29:25;;;;;;;5.62;3.15;;;;;;;17.53;38.36;101214.83;1694661;82;20935;-77
2022/05/02 10:32:06;;;;;;;3.87;2.83;;;;;;;17.47;38.31;101220.72;1690622;82;20975;-78
2022/05/02 10:34:33;;;;;;;4.90;2.58;;;;;;;17.49;38.48;101222.83;1688790;82;20923;-78
2022/05/02 10:37:06;;;;;;;5.08;2.60;;;;;;;17.58;38.52;101204.20;1688822;82;20928;-78
2022/05/02 10:39:47;;;;;;;3.37;2.85;;;;;;;17.68;38.38;101206.04;1685839;82;20943;-79
2022/05/02 10:42:10;;;;;;;4.50;2.50;;;;;;;17.61;38.46;101198.86;1678855;82;20931;-78
2022/05/02 10:45:07;;;;;;;5.28;2.60;;;;;;;17.71;38.54;101199.39;1692662;82;20980;-78
2022/05/02 10:47:46;;;;;;;3.22;2.55;;;;;;;17.82;38.53;101196.78;1686286;84;20935;-78
2022/05/02 10:50:35;;;;;;;4.20;2.72;;;;;;;17.88;38.52;101190.48;1668181;84;21555;-78
2022/05/02 10:53:36;;;;;;;3.40;2.47;;;;;;;17.95;38.50;101191.95;1682362;84;21051;-78
2022/05/02 10:56:11;;;;;;;3.00;2.60;;;;;;;18.07;38.48;101187.57;1684270;84;21575;-78
2022/05/02 10:58:45;;;;;;;3.72;2.77;;;;;;;18.07;38.43;101194.57;1675475;84;21523;-78
2022/05/02 11:01:20;;;;;;;3.08;2.62;;;;;;;17.89;38.33;101190.02;1695489;84;21085;-78
2022/05/02 11:04:16;;;;;;;4.70;2.77;;;;;;;17.80;38.37;101186.83;1684640;84;21417;-78
2022/05/02 11:06:48;;;;;;;3.35;3.00;;;;;;;17.71;38.35;101180.62;1682641;84;21134;-78
2022/05/02 11:09:21;;;;;;;4.58;2.70;;;;;;;17.64;38.31;101181.76;1682524;84;21054;-78
2022/05/02 11:11:50;;;;;;;5.22;3.05;;;;;;;17.56;38.29;101178.56;1665908;84;21083;-78
2022/05/02 11:14:43;;;;;;;4.95;2.62;;;;;;;17.50;38.31;101169.63;1681392;83;21106;-78
2022/05/02 11:17:24;;;;;;;4.40;2.87;;;;;;;17.49;38.32;101168.77;1688430;84;22195;-77
2022/05/02 11:23:00;;;;;;;3.52;2.85;;;;;;;17.35;38.38;101157.95;1685147;82;21094;-77
2022/05/02 11:25:40;;;;;;;4.25;2.75;;;;;;;17.45;38.43;101159.78;1684655;84;20944;-77
2022/05/02 11:28:15;;;;;;;3.75;2.90;;;;;;;17.53;38.29;101156.45;1672894;84;21773;-78
2022/05/02 11:30:53;;;;;;;6.08;2.70;;;;;;;17.54;38.38;101151.61;1680970;84;20997;-78
2022/05/02 11:33:33;;;;;;;3.80;3.02;;;;;;;17.62;38.33;101155.26;1680032;84;20948;-78
2022/05/02 11:36:03;;;;;;;4.60;2.50;;;;;;;17.66;38.36;101150.34;1659741;84;21445;-78
2022/05/02 11:38:41;;;;;;;3.80;2.80;;;;;;;17.68;38.35;101138.89;1690325;82;20888;-78
2022/05/02 11:41:22;;;;;;;4.60;2.98;;;;;;;17.75;38.33;101136.45;1686333;83;20948;-78
2022/05/02 11:43:46;;;;;;;3.45;2.83;;;;;;;17.77;38.37;101129.39;1680775;84;20896;-78
2022/05/02 11:46:25;;;;;;;4.28;2.62;;;;;;;17.76;38.38;101131.61;1694263;82;20956;-78
2022/05/02 11:49:19;;;;;;;4.55;2.62;;;;;;;17.82;38.43;101129.22;1681886;84;21070;-78
2022/05/02 11:51:51;;;;;;;4.75;2.60;;;;;;;17.88;38.41;101124.21;1684759;83;21097;-78
2022/05/02 11:54:29;;;;;;;7.03;2.65;;;;;;;17.91;38.44;101122.34;1674676;84;22133;-79
2022/05/02 11:57:17;;;;;;;2.85;2.50;;;;;;;17.91;38.34;101113.63;1654886;84;21120;-79
2022/05/02 12:00:03;;;;;;;9.55;2.30;;;;;;;17.96;38.46;101113.85;1679705;84;21011;-78
2022/05/02 12:02:37;;;;;;;2.30;2.10;;;;;;;18.06;38.45;101111.73;1684298;82;21572;-79
2022/05/02 12:05:20;;;;;;;2.42;2.12;;;;;;;18.16;38.43;101103.46;1675108;82;21649;-79
2022/05/02 12:07:59;;;;;;;3.27;2.27;;;;;;;18.29;38.45;101094.63;1671854;84;21071;-79
2022/05/02 12:10:36;;;;;;;2.75;1.90;;;;;;;18.41;38.45;101096.76;1670869;85;28232;-78
2022/05/02 12:13:05;;;;;;;2.52;2.33;;;;;;;18.56;38.46;101093.12;1688516;84;21392;-78
2022/05/02 12:15:32;;;;;;;3.35;2.52;;;;;;;18.68;38.29;101084.78;1682506;82;21070;-77
2022/05/02 12:18:05;;;;;;;3.08;1.98;;;;;;;18.73;38.37;101086.72;1681766;84;21119;-77
2022/05/02 12:20:41;;;;;;;2.47;2.27;;;;;;;18.78;38.30;101083.00;1683013;82;21638;-77
2022/05/02 12:23:17;;;;;;;3.22;2.55;;;;;;;18.80;38.26;101084.23;1693570;84;21067;-78
2022/05/02 12:25:53;;;;;;;4.67;2.65;;;;;;;18.83;38.29;101081.48;1687599;83;20944;-79
2022/05/02 12:28:41;;;;;;;8.03;2.30;;;;;;;18.89;38.24;101080.38;1687128;84;22310;-79
2022/05/02 12:31:17;;;;;;;2.30;2.05;;;;;;;18.94;38.21;101067.92;1700378;84;21396;-78
2022/05/02 12:33:50;;;;;;;2.95;2.05;;;;;;;18.94;38.22;101071.86;1699549;84;20944;-78
2022/05/02 12:36:20;;;;;;;5.03;2.20;;;;;;;18.97;38.22;101066.03;1697095;83;21397;-78
2022/05/02 12:38:57;;;;;;;2.67;1.80;;;;;;;19.03;38.20;101064.45;1701693;83;20905;-78